SWA4584 KSFO-KLAX
Flight info
| Callsign | SWA4584 |
|---|---|
| Flight time | 0h 56m |
| Altitude | 33000 |
| Route | WESLA5 SUSEY DCT EBAYE DCT BURGL IRNMN2 |
| Aircraft | B38M/M-SDE1FGHILORVWXY/HB1 |
Departure
| Time | 2026-05-04 07:08 |
|---|---|
| Airport | San Francisco International Airport (KSFO) |
Arrival
| Time | 2026-05-04 08:05 |
|---|---|
| Airport | Los Angeles International Airport (KLAX) |
| Time | Latitude | Longitude | Altitude | Speed | Heading |
|---|---|---|---|---|---|
| 2026-05-04 06:58 | 37.61726 | -122.37945 | 24 ft | 1 kts | 191° |
| 2026-05-04 07:02 | 37.61724 | -122.37945 | 24 ft | 1 kts | 183° |
| 2026-05-04 07:02 | 37.61709 | -122.37937 | 24 ft | 3 kts | 148° |
| 2026-05-04 07:02 | 37.61688 | -122.37908 | 25 ft | 6 kts | 124° |
| 2026-05-04 07:03 | 37.61673 | -122.37847 | 24 ft | 8 kts | 99° |
| 2026-05-04 07:03 | 37.61665 | -122.37763 | 26 ft | 11 kts | 97° |
| 2026-05-04 07:03 | 37.61653 | -122.37656 | 26 ft | 14 kts | 97° |
| 2026-05-04 07:03 | 37.61641 | -122.37534 | 24 ft | 15 kts | 97° |
| 2026-05-04 07:04 | 37.61627 | -122.37391 | 24 ft | 18 kts | 96° |
| 2026-05-04 07:04 | 37.61601 | -122.37233 | 26 ft | 20 kts | 114° |
| 2026-05-04 07:04 | 37.61535 | -122.37070 | 28 ft | 22 kts | 117° |
| 2026-05-04 07:04 | 37.61447 | -122.36900 | 24 ft | 24 kts | 131° |
| 2026-05-04 07:05 | 37.61342 | -122.36725 | 27 ft | 26 kts | 117° |
| 2026-05-04 07:05 | 37.61253 | -122.36514 | 26 ft | 28 kts | 117° |
| 2026-05-04 07:05 | 37.61163 | -122.36302 | 26 ft | 27 kts | 118° |
| 2026-05-04 07:05 | 37.61085 | -122.36117 | 28 ft | 22 kts | 119° |
| 2026-05-04 07:06 | 37.61165 | -122.35876 | 26 ft | 17 kts | 357° |
| 2026-05-04 07:06 | 37.61202 | -122.35912 | 26 ft | 1 kts | 298° |
| 2026-05-04 07:06 | 37.61210 | -122.35933 | 24 ft | 4 kts | 298° |
| 2026-05-04 07:07 | 37.61310 | -122.36169 | 28 ft | 75 kts | 297° |
| 2026-05-04 07:08 | 37.65466 | -122.45832 | 4945 ft | 241 kts | 298° |
| 2026-05-04 07:09 | 37.66287 | -122.47687 | 6093 ft | 245 kts | 298° |
| 2026-05-04 07:09 | 37.66924 | -122.49748 | 6927 ft | 262 kts | 277° |
| 2026-05-04 07:09 | 37.66689 | -122.52067 | 7669 ft | 276 kts | 243° |
| 2026-05-04 07:09 | 37.65654 | -122.53786 | 8684 ft | 274 kts | 218° |
| 2026-05-04 07:10 | 37.63938 | -122.54831 | 9607 ft | 279 kts | 187° |
| 2026-05-04 07:10 | 37.62017 | -122.54634 | 10560 ft | 283 kts | 159° |
| 2026-05-04 07:12 | 37.50556 | -122.48321 | 15006 ft | 333 kts | 155° |
| 2026-05-04 07:12 | 37.48588 | -122.46778 | 15795 ft | 335 kts | 136° |
| 2026-05-04 07:12 | 37.46969 | -122.44634 | 16570 ft | 339 kts | 133° |
| 2026-05-04 07:12 | 37.45339 | -122.42457 | 17314 ft | 343 kts | 133° |
| 2026-05-04 07:13 | 37.43701 | -122.40249 | 18061 ft | 346 kts | 133° |
| 2026-05-04 07:13 | 37.42069 | -122.38038 | 18747 ft | 350 kts | 132° |
| 2026-05-04 07:13 | 37.40410 | -122.35787 | 19443 ft | 352 kts | 132° |
| 2026-05-04 07:14 | 37.33617 | -122.26567 | 21982 ft | 365 kts | 133° |
| 2026-05-04 07:14 | 37.31902 | -122.24243 | 22560 ft | 368 kts | 132° |
| 2026-05-04 07:15 | 37.30151 | -122.21873 | 23116 ft | 371 kts | 133° |
| 2026-05-04 07:15 | 37.28383 | -122.19481 | 23666 ft | 374 kts | 133° |
| 2026-05-04 07:15 | 37.26604 | -122.17076 | 24193 ft | 377 kts | 133° |
| 2026-05-04 07:15 | 37.24815 | -122.14659 | 24706 ft | 380 kts | 133° |
| 2026-05-04 07:16 | 37.22999 | -122.12208 | 25150 ft | 385 kts | 134° |
| 2026-05-04 07:16 | 37.21189 | -122.09766 | 25590 ft | 389 kts | 134° |
| 2026-05-04 07:16 | 37.19332 | -122.07263 | 26014 ft | 394 kts | 134° |
| 2026-05-04 07:16 | 37.17454 | -122.04734 | 26442 ft | 398 kts | 135° |
| 2026-05-04 07:17 | 37.15558 | -122.02182 | 26868 ft | 402 kts | 135° |
| 2026-05-04 07:17 | 37.13641 | -121.99605 | 27250 ft | 406 kts | 135° |
| 2026-05-04 07:17 | 37.11703 | -121.97001 | 27653 ft | 410 kts | 136° |
| 2026-05-04 07:17 | 37.09739 | -121.94365 | 27979 ft | 415 kts | 137° |
| 2026-05-04 07:18 | 37.07752 | -121.91700 | 28283 ft | 421 kts | 137° |
| 2026-05-04 07:18 | 37.05773 | -121.89046 | 28700 ft | 423 kts | 138° |
| 2026-05-04 07:18 | 37.03747 | -121.86332 | 29024 ft | 428 kts | 139° |
| 2026-05-04 07:18 | 37.01699 | -121.83591 | 29349 ft | 431 kts | 139° |
| 2026-05-04 07:19 | 36.99636 | -121.80833 | 29688 ft | 435 kts | 139° |
| 2026-05-04 07:19 | 36.97579 | -121.78088 | 30019 ft | 438 kts | 140° |
| 2026-05-04 07:19 | 36.95481 | -121.75288 | 30329 ft | 442 kts | 140° |
| 2026-05-04 07:19 | 36.93370 | -121.72472 | 30644 ft | 445 kts | 140° |
| 2026-05-04 07:20 | 36.91232 | -121.69622 | 30937 ft | 449 kts | 141° |
| 2026-05-04 07:20 | 36.89107 | -121.66792 | 31247 ft | 452 kts | 141° |
| 2026-05-04 07:20 | 36.86944 | -121.63915 | 31554 ft | 455 kts | 141° |
| 2026-05-04 07:20 | 36.84767 | -121.61023 | 31849 ft | 459 kts | 141° |
| 2026-05-04 07:22 | 36.69314 | -121.40565 | 33073 ft | 463 kts | 143° |
| 2026-05-04 07:22 | 36.67099 | -121.37641 | 33061 ft | 464 kts | 143° |
| 2026-05-04 07:23 | 36.62658 | -121.31787 | 33071 ft | 463 kts | 143° |
| 2026-05-04 07:23 | 36.58240 | -121.25977 | 33061 ft | 465 kts | 143° |
| 2026-05-04 07:24 | 36.53780 | -121.20123 | 33069 ft | 465 kts | 144° |
| 2026-05-04 07:24 | 36.49335 | -121.14295 | 33062 ft | 470 kts | 144° |
| 2026-05-04 07:26 | 36.31179 | -120.88869 | 33077 ft | 499 kts | 141° |
| 2026-05-04 07:27 | 36.26622 | -120.82355 | 33057 ft | 499 kts | 141° |
| 2026-05-04 07:27 | 36.22164 | -120.75993 | 33057 ft | 500 kts | 141° |
| 2026-05-04 07:28 | 36.17595 | -120.69489 | 33058 ft | 500 kts | 142° |
| 2026-05-04 07:28 | 36.13010 | -120.62973 | 33058 ft | 502 kts | 142° |
| 2026-05-04 07:29 | 36.08422 | -120.56465 | 33048 ft | 500 kts | 142° |
| 2026-05-04 07:29 | 36.03859 | -120.50005 | 33071 ft | 503 kts | 142° |
| 2026-05-04 07:30 | 35.99242 | -120.43480 | 33050 ft | 502 kts | 143° |
| 2026-05-04 07:30 | 35.94656 | -120.36960 | 33098 ft | 505 kts | 143° |
| 2026-05-04 07:31 | 35.89982 | -120.30427 | 33055 ft | 506 kts | 143° |
| 2026-05-04 07:33 | 35.70993 | -120.14078 | 33071 ft | 473 kts | 161° |
| 2026-05-04 07:33 | 35.68179 | -120.11959 | 33073 ft | 473 kts | 161° |
| 2026-05-04 07:33 | 35.62549 | -120.07707 | 33074 ft | 474 kts | 161° |
| 2026-05-04 07:34 | 35.56950 | -120.03484 | 33069 ft | 473 kts | 161° |
| 2026-05-04 07:34 | 35.51370 | -119.99283 | 33068 ft | 473 kts | 161° |
| 2026-05-04 07:35 | 35.45744 | -119.95054 | 33070 ft | 473 kts | 162° |
| 2026-05-04 07:35 | 35.40130 | -119.90844 | 33055 ft | 472 kts | 162° |
| 2026-05-04 07:36 | 35.34512 | -119.86633 | 33076 ft | 473 kts | 162° |
| 2026-05-04 07:38 | 35.15897 | -119.70281 | 33055 ft | 485 kts | 156° |
| 2026-05-04 07:38 | 35.13227 | -119.67789 | 32995 ft | 477 kts | 156° |
| 2026-05-04 07:38 | 35.10600 | -119.65340 | 32455 ft | 471 kts | 156° |
| 2026-05-04 07:38 | 35.08024 | -119.62942 | 32141 ft | 469 kts | 156° |
| 2026-05-04 07:39 | 35.05411 | -119.60516 | 31760 ft | 474 kts | 156° |
| 2026-05-04 07:39 | 35.02782 | -119.58071 | 31348 ft | 477 kts | 156° |
| 2026-05-04 07:39 | 35.01025 | -119.56440 | 30981 ft | 479 kts | 155° |
| 2026-05-04 07:39 | 34.98357 | -119.53963 | 30363 ft | 481 kts | 155° |
| 2026-05-04 07:40 | 34.95694 | -119.51493 | 29779 ft | 481 kts | 155° |
| 2026-05-04 07:40 | 34.93027 | -119.49022 | 29230 ft | 483 kts | 154° |
| 2026-05-04 07:40 | 34.90332 | -119.46575 | 28656 ft | 482 kts | 155° |
| 2026-05-04 07:40 | 34.87649 | -119.44178 | 28197 ft | 484 kts | 155° |
| 2026-05-04 07:41 | 34.84921 | -119.41736 | 27709 ft | 485 kts | 155° |
| 2026-05-04 07:41 | 34.82193 | -119.39286 | 27167 ft | 485 kts | 154° |
| 2026-05-04 07:41 | 34.79469 | -119.36843 | 26645 ft | 487 kts | 154° |
| 2026-05-04 07:41 | 34.76925 | -119.34569 | 26150 ft | 488 kts | 154° |
| 2026-05-04 07:42 | 34.74166 | -119.32123 | 25574 ft | 485 kts | 154° |
| 2026-05-04 07:42 | 34.71433 | -119.29734 | 25026 ft | 482 kts | 154° |
| 2026-05-04 07:42 | 34.68725 | -119.27362 | 24538 ft | 478 kts | 154° |
| 2026-05-04 07:42 | 34.66066 | -119.25037 | 24030 ft | 474 kts | 154° |
| 2026-05-04 07:43 | 34.63392 | -119.22722 | 23492 ft | 469 kts | 154° |
| 2026-05-04 07:43 | 34.60739 | -119.20434 | 22983 ft | 462 kts | 154° |
| 2026-05-04 07:43 | 34.58184 | -119.18224 | 22528 ft | 439 kts | 154° |
| 2026-05-04 07:43 | 34.55756 | -119.16102 | 22015 ft | 421 kts | 154° |
| 2026-05-04 07:44 | 34.53428 | -119.14042 | 21532 ft | 404 kts | 153° |
| 2026-05-04 07:44 | 34.51237 | -119.12101 | 21132 ft | 389 kts | 154° |
| 2026-05-04 07:44 | 34.49051 | -119.10173 | 20688 ft | 386 kts | 153° |
| 2026-05-04 07:44 | 34.46888 | -119.08266 | 20212 ft | 384 kts | 153° |
| 2026-05-04 07:45 | 34.44732 | -119.06363 | 19741 ft | 381 kts | 153° |
| 2026-05-04 07:45 | 34.42597 | -119.04507 | 19120 ft | 374 kts | 153° |
| 2026-05-04 07:45 | 34.40487 | -119.02682 | 18575 ft | 372 kts | 153° |
| 2026-05-04 07:45 | 34.38382 | -119.00858 | 18014 ft | 369 kts | 152° |
| 2026-05-04 07:46 | 34.36299 | -118.99052 | 17464 ft | 367 kts | 152° |
| 2026-05-04 07:46 | 34.34241 | -118.97249 | 16950 ft | 364 kts | 150° |
| 2026-05-04 07:46 | 34.32223 | -118.95416 | 16450 ft | 361 kts | 150° |
| 2026-05-04 07:46 | 34.30242 | -118.93622 | 16043 ft | 356 kts | 150° |
| 2026-05-04 07:47 | 34.28289 | -118.91857 | 15605 ft | 344 kts | 150° |
| 2026-05-04 07:47 | 34.26403 | -118.90154 | 15198 ft | 332 kts | 150° |
| 2026-05-04 07:47 | 34.24587 | -118.88492 | 14742 ft | 323 kts | 149° |
| 2026-05-04 07:49 | 34.13535 | -118.77801 | 12300 ft | 266 kts | 143° |
| 2026-05-04 07:49 | 34.12158 | -118.76299 | 12066 ft | 265 kts | 143° |
| 2026-05-04 07:49 | 34.10791 | -118.74814 | 11791 ft | 264 kts | 142° |
| 2026-05-04 07:50 | 34.09428 | -118.73342 | 11514 ft | 262 kts | 142° |
| 2026-05-04 07:50 | 34.08069 | -118.71875 | 11231 ft | 262 kts | 142° |
| 2026-05-04 07:50 | 34.06709 | -118.70410 | 10952 ft | 261 kts | 143° |
| 2026-05-04 07:50 | 34.05360 | -118.68979 | 10670 ft | 261 kts | 141° |
| 2026-05-04 07:51 | 34.04027 | -118.67497 | 10403 ft | 262 kts | 135° |
| 2026-05-04 07:51 | 34.03090 | -118.65546 | 10072 ft | 278 kts | 108° |
| 2026-05-04 07:51 | 34.02750 | -118.63224 | 9780 ft | 284 kts | 99° |
| 2026-05-04 07:51 | 34.02492 | -118.60849 | 9486 ft | 286 kts | 98° |
| 2026-05-04 07:52 | 34.02245 | -118.58470 | 9181 ft | 283 kts | 97° |
| 2026-05-04 07:52 | 34.02017 | -118.56180 | 8878 ft | 273 kts | 97° |
| 2026-05-04 07:52 | 34.01801 | -118.53943 | 8555 ft | 264 kts | 97° |
| 2026-05-04 07:52 | 34.01593 | -118.51774 | 8273 ft | 255 kts | 97° |
| 2026-05-04 07:53 | 34.01395 | -118.49685 | 8010 ft | 245 kts | 97° |
| 2026-05-04 07:54 | 34.02727 | -118.35679 | 6032 ft | 241 kts | 82° |
| 2026-05-04 07:55 | 34.02931 | -118.33708 | 6037 ft | 235 kts | 83° |
| 2026-05-04 07:55 | 34.03135 | -118.31745 | 6019 ft | 235 kts | 83° |
| 2026-05-04 07:55 | 34.03341 | -118.29808 | 5995 ft | 235 kts | 83° |
| 2026-05-04 07:55 | 34.03556 | -118.27846 | 5877 ft | 235 kts | 83° |
| 2026-05-04 07:56 | 34.03771 | -118.25884 | 5681 ft | 235 kts | 83° |
| 2026-05-04 07:56 | 34.03985 | -118.23933 | 5565 ft | 234 kts | 83° |
| 2026-05-04 07:56 | 34.04197 | -118.21994 | 5476 ft | 233 kts | 83° |
| 2026-05-04 07:56 | 34.04409 | -118.20055 | 5398 ft | 233 kts | 83° |
| 2026-05-04 07:57 | 34.04622 | -118.18115 | 5334 ft | 233 kts | 83° |
| 2026-05-04 07:57 | 34.04832 | -118.16205 | 5260 ft | 232 kts | 83° |
| 2026-05-04 07:57 | 34.05044 | -118.14267 | 5191 ft | 232 kts | 83° |
| 2026-05-04 07:57 | 34.05240 | -118.12335 | 5107 ft | 229 kts | 88° |
| 2026-05-04 07:58 | 34.04870 | -118.10559 | 5003 ft | 215 kts | 126° |
| 2026-05-04 07:58 | 34.03812 | -118.09343 | 4961 ft | 213 kts | 151° |
| 2026-05-04 07:58 | 34.02436 | -118.08745 | 4972 ft | 215 kts | 175° |
| 2026-05-04 07:58 | 34.00947 | -118.08920 | 4982 ft | 216 kts | 201° |
| 2026-05-04 07:59 | 33.99682 | -118.09875 | 4956 ft | 216 kts | 224° |
| 2026-05-04 07:59 | 33.98618 | -118.11160 | 4869 ft | 217 kts | 231° |
| 2026-05-04 07:59 | 33.98039 | -118.12822 | 4589 ft | 217 kts | 262° |
| 2026-05-04 07:59 | 33.97858 | -118.14607 | 4301 ft | 217 kts | 262° |
| 2026-05-04 08:00 | 33.97658 | -118.16421 | 3989 ft | 219 kts | 262° |
| 2026-05-04 08:00 | 33.97466 | -118.18248 | 3682 ft | 220 kts | 262° |
| 2026-05-04 08:00 | 33.97275 | -118.20085 | 3377 ft | 221 kts | 262° |
| 2026-05-04 08:02 | 33.96115 | -118.31384 | 1538 ft | 130 kts | 263° |
| 2026-05-04 08:02 | 33.96006 | -118.32453 | 1376 ft | 128 kts | 263° |
| 2026-05-04 08:02 | 33.95897 | -118.33512 | 1213 ft | 127 kts | 263° |
| 2026-05-04 08:03 | 33.95789 | -118.34565 | 1034 ft | 126 kts | 263° |
| 2026-05-04 08:03 | 33.95684 | -118.35601 | 874 ft | 126 kts | 262° |
| 2026-05-04 08:03 | 33.95575 | -118.36646 | 704 ft | 126 kts | 262° |
| 2026-05-04 08:03 | 33.95467 | -118.37696 | 536 ft | 126 kts | 262° |
| 2026-05-04 08:04 | 33.95358 | -118.38755 | 354 ft | 127 kts | 262° |
| 2026-05-04 08:04 | 33.95254 | -118.39798 | 174 ft | 126 kts | 263° |
| 2026-05-04 08:04 | 33.95150 | -118.40835 | 96 ft | 118 kts | 262° |
| 2026-05-04 08:04 | 33.95052 | -118.41733 | 99 ft | 90 kts | 262° |
| 2026-05-04 08:05 | 33.94962 | -118.42155 | 96 ft | 26 kts | 232° |
| 2026-05-04 08:05 | 33.94911 | -118.42226 | 97 ft | 4 kts | 226° |
| 2026-05-04 08:05 | 33.94884 | -118.42256 | 97 ft | 6 kts | 214° |
| 2026-05-04 08:05 | 33.94842 | -118.42277 | 99 ft | 8 kts | 196° |
| 2026-05-04 08:06 | 33.94762 | -118.42280 | 98 ft | 17 kts | 172° |
| 2026-05-04 08:06 | 33.94624 | -118.42251 | 97 ft | 18 kts | 150° |
| 2026-05-04 08:06 | 33.94619 | -118.42095 | 97 ft | 24 kts | 82° |
| 2026-05-04 08:06 | 33.94633 | -118.41859 | 95 ft | 32 kts | 85° |
| 2026-05-04 08:08 | 33.94795 | -118.40449 | 95 ft | 27 kts | 82° |
| 2026-05-04 08:08 | 33.94824 | -118.40231 | 95 ft | 21 kts | 81° |